YXU weather

London Airport
London, Ontario, Canada

Public forecast

Using degrees Celsius for public forecast. Weather courtesy of forecast.io.

Current aviation weather report (METAR) for London Airport

Retrieved 2019/10/22 00:00 UTC (59 minutes ago):

CYXU 220000Z 10012KT 15SM OVC056 13/11 A2978 RMK SC8 SLP091 DENSITY ALT 1100FT

Aviation forecast (TAF) for London Airport

Retrieved 2019-10-22 00:42 UTC (17 minutes ago):

TAF CYXU 212338Z 2200/2224 09012KT P6SM BKN060 OVC090 TEMPO 2200/2203 5SM -SHRA BR BKN020 OVC040 FM220300 16018KT 6SM -SHRA BR SCT006 OVC012 TEMPO 2203/2209 21/2SM SHRA BR OVC006 PROB30 2205/2209 OVC003 FM220900 20010G20KT 5SM -SHRA BR BKN006 OVC015 FM221100 21008KT 6SM BR BKN015 OVC030 FM221600 21010G20KT 4SM -SHRA BR FEW008 BKN015 OVC030 RMK NXT FCST BY 220600Z